sensor_id;sensor_type;location;lat;lon;timestamp;P1;durP1;ratioP1;P2;durP2;ratioP2
803;SDS011;25687;49.976;8.240;2023-04-15T00:01:23;10.33;;;6.33;;
803;SDS011;25687;49.976;8.240;2023-04-15T00:03:50;9.20;;;5.47;;
803;SDS011;25687;49.976;8.240;2023-04-15T00:06:16;7.93;;;4.77;;
803;SDS011;25687;49.976;8.240;2023-04-15T00:08:43;8.00;;;4.73;;
803;SDS011;25687;49.976;8.240;2023-04-15T00:11:09;8.27;;;5.20;;
803;SDS011;25687;49.976;8.240;2023-04-15T00:13:34;11.47;;;4.97;;
803;SDS011;25687;49.976;8.240;2023-04-15T00:16:00;7.77;;;4.60;;
803;SDS011;25687;49.976;8.240;2023-04-15T00:18:26;10.23;;;4.77;;
803;SDS011;25687;49.976;8.240;2023-04-15T00:20:51;9.17;;;4.77;;
803;SDS011;25687;49.976;8.240;2023-04-15T00:23:17;9.27;;;5.00;;
803;SDS011;25687;49.976;8.240;2023-04-15T00:25:43;11.73;;;4.80;;
803;SDS011;25687;49.976;8.240;2023-04-15T00:28:08;7.70;;;4.87;;
803;SDS011;25687;49.976;8.240;2023-04-15T00:30:34;7.53;;;4.47;;
803;SDS011;25687;49.976;8.240;2023-04-15T00:32:59;7.67;;;4.33;;
803;SDS011;25687;49.976;8.240;2023-04-15T00:35:26;9.87;;;4.67;;
803;SDS011;25687;49.976;8.240;2023-04-15T00:37:51;7.93;;;4.50;;
803;SDS011;25687;49.976;8.240;2023-04-15T00:40:17;6.63;;;4.80;;
803;SDS011;25687;49.976;8.240;2023-04-15T00:42:44;7.80;;;4.83;;
803;SDS011;25687;49.976;8.240;2023-04-15T00:45:10;9.53;;;4.43;;
803;SDS011;25687;49.976;8.240;2023-04-15T00:47:36;6.73;;;4.00;;
803;SDS011;25687;49.976;8.240;2023-04-15T00:50:05;8.03;;;3.90;;
803;SDS011;25687;49.976;8.240;2023-04-15T00:52:31;10.23;;;4.67;;
803;SDS011;25687;49.976;8.240;2023-04-15T00:54:56;6.53;;;4.10;;
803;SDS011;25687;49.976;8.240;2023-04-15T00:57:22;12.90;;;4.50;;
803;SDS011;25687;49.976;8.240;2023-04-15T00:59:47;8.60;;;4.77;;
803;SDS011;25687;49.976;8.240;2023-04-15T01:02:13;5.97;;;4.50;;
803;SDS011;25687;49.976;8.240;2023-04-15T01:04:38;5.10;;;3.77;;
803;SDS011;25687;49.976;8.240;2023-04-15T01:07:04;7.97;;;5.00;;
803;SDS011;25687;49.976;8.240;2023-04-15T01:09:29;7.37;;;5.17;;
803;SDS011;25687;49.976;8.240;2023-04-15T01:11:55;5.40;;;3.90;;
803;SDS011;25687;49.976;8.240;2023-04-15T01:14:21;6.60;;;4.47;;
803;SDS011;25687;49.976;8.240;2023-04-15T01:16:46;7.03;;;4.67;;
803;SDS011;25687;49.976;8.240;2023-04-15T01:19:11;8.13;;;4.00;;
803;SDS011;25687;49.976;8.240;2023-04-15T01:21:40;7.97;;;3.97;;
803;SDS011;25687;49.976;8.240;2023-04-15T01:24:08;6.23;;;3.70;;
803;SDS011;25687;49.976;8.240;2023-04-15T01:26:36;6.93;;;3.77;;
803;SDS011;25687;49.976;8.240;2023-04-15T01:29:02;6.87;;;3.57;;
803;SDS011;25687;49.976;8.240;2023-04-15T01:31:27;9.17;;;3.23;;
803;SDS011;25687;49.976;8.240;2023-04-15T01:33:53;5.13;;;3.33;;
803;SDS011;25687;49.976;8.240;2023-04-15T01:36:18;15.40;;;4.00;;
803;SDS011;25687;49.976;8.240;2023-04-15T01:38:43;5.50;;;3.40;;
803;SDS011;25687;49.976;8.240;2023-04-15T01:41:09;7.30;;;3.13;;
803;SDS011;25687;49.976;8.240;2023-04-15T01:43:34;5.57;;;3.70;;
803;SDS011;25687;49.976;8.240;2023-04-15T01:46:01;8.10;;;2.97;;
803;SDS011;25687;49.976;8.240;2023-04-15T01:48:27;5.10;;;3.30;;
803;SDS011;25687;49.976;8.240;2023-04-15T01:50:53;7.10;;;3.30;;
803;SDS011;25687;49.976;8.240;2023-04-15T01:53:19;8.70;;;3.90;;
803;SDS011;25687;49.976;8.240;2023-04-15T01:55:44;4.03;;;2.90;;
803;SDS011;25687;49.976;8.240;2023-04-15T01:58:09;5.67;;;3.50;;
803;SDS011;25687;49.976;8.240;2023-04-15T02:00:35;6.03;;;3.23;;
803;SDS011;25687;49.976;8.240;2023-04-15T02:03:00;7.80;;;3.43;;
803;SDS011;25687;49.976;8.240;2023-04-15T02:05:26;8.40;;;3.60;;
803;SDS011;25687;49.976;8.240;2023-04-15T02:07:51;5.30;;;3.63;;
803;SDS011;25687;49.976;8.240;2023-04-15T02:10:17;5.17;;;3.40;;
803;SDS011;25687;49.976;8.240;2023-04-15T02:12:43;7.43;;;3.33;;
803;SDS011;25687;49.976;8.240;2023-04-15T02:15:08;7.73;;;3.70;;
803;SDS011;25687;49.976;8.240;2023-04-15T02:17:34;4.87;;;3.07;;
803;SDS011;25687;49.976;8.240;2023-04-15T02:20:00;5.53;;;3.10;;
803;SDS011;25687;49.976;8.240;2023-04-15T02:22:26;5.43;;;3.13;;
803;SDS011;25687;49.976;8.240;2023-04-15T02:24:51;6.30;;;3.43;;
803;SDS011;25687;49.976;8.240;2023-04-15T02:27:17;5.10;;;3.00;;
803;SDS011;25687;49.976;8.240;2023-04-15T02:29:45;5.17;;;3.40;;
803;SDS011;25687;49.976;8.240;2023-04-15T02:32:11;5.90;;;3.33;;
803;SDS011;25687;49.976;8.240;2023-04-15T02:34:40;5.17;;;2.77;;
803;SDS011;25687;49.976;8.240;2023-04-15T02:37:07;6.20;;;3.43;;
803;SDS011;25687;49.976;8.240;2023-04-15T02:39:33;5.97;;;3.07;;
803;SDS011;25687;49.976;8.240;2023-04-15T02:41:59;7.00;;;3.33;;
803;SDS011;25687;49.976;8.240;2023-04-15T02:44:25;4.80;;;2.90;;
803;SDS011;25687;49.976;8.240;2023-04-15T02:46:51;6.60;;;3.10;;
803;SDS011;25687;49.976;8.240;2023-04-15T02:49:18;6.67;;;3.53;;
803;SDS011;25687;49.976;8.240;2023-04-15T02:51:44;8.87;;;3.53;;
803;SDS011;25687;49.976;8.240;2023-04-15T02:54:13;7.90;;;3.37;;
803;SDS011;25687;49.976;8.240;2023-04-15T02:56:41;5.60;;;3.20;;
803;SDS011;25687;49.976;8.240;2023-04-15T02:59:07;7.17;;;3.43;;
803;SDS011;25687;49.976;8.240;2023-04-15T03:01:32;5.77;;;3.03;;
803;SDS011;25687;49.976;8.240;2023-04-15T03:03:57;4.33;;;3.33;;
803;SDS011;25687;49.976;8.240;2023-04-15T03:06:22;5.03;;;3.30;;
803;SDS011;25687;49.976;8.240;2023-04-15T03:08:48;6.73;;;3.43;;
803;SDS011;25687;49.976;8.240;2023-04-15T03:11:14;4.23;;;2.93;;
803;SDS011;25687;49.976;8.240;2023-04-15T03:13:40;7.60;;;2.73;;
803;SDS011;25687;49.976;8.240;2023-04-15T03:16:07;6.87;;;3.40;;
803;SDS011;25687;49.976;8.240;2023-04-15T03:18:32;3.00;;;2.30;;
803;SDS011;25687;49.976;8.240;2023-04-15T03:20:58;5.50;;;2.97;;
803;SDS011;25687;49.976;8.240;2023-04-15T03:23:23;5.63;;;3.10;;
803;SDS011;25687;49.976;8.240;2023-04-15T03:25:49;2.97;;;2.67;;
803;SDS011;25687;49.976;8.240;2023-04-15T03:28:15;4.07;;;2.87;;
803;SDS011;25687;49.976;8.240;2023-04-15T03:30:40;4.17;;;3.17;;
803;SDS011;25687;49.976;8.240;2023-04-15T03:33:06;6.57;;;3.27;;
803;SDS011;25687;49.976;8.240;2023-04-15T03:35:32;4.77;;;3.10;;
803;SDS011;25687;49.976;8.240;2023-04-15T03:37:57;7.13;;;3.40;;
803;SDS011;25687;49.976;8.240;2023-04-15T03:40:23;5.50;;;3.00;;
803;SDS011;25687;49.976;8.240;2023-04-15T03:42:48;6.60;;;3.17;;
803;SDS011;25687;49.976;8.240;2023-04-15T03:45:13;5.77;;;3.30;;
803;SDS011;25687;49.976;8.240;2023-04-15T03:47:39;6.13;;;3.67;;
803;SDS011;25687;49.976;8.240;2023-04-15T03:50:04;7.57;;;3.70;;
803;SDS011;25687;49.976;8.240;2023-04-15T03:52:30;8.80;;;3.60;;
803;SDS011;25687;49.976;8.240;2023-04-15T03:54:55;5.70;;;3.73;;
803;SDS011;25687;49.976;8.240;2023-04-15T03:57:20;6.23;;;3.20;;
803;SDS011;25687;49.976;8.240;2023-04-15T03:59:46;7.57;;;3.70;;
803;SDS011;25687;49.976;8.240;2023-04-15T04:02:11;6.37;;;2.87;;
803;SDS011;25687;49.976;8.240;2023-04-15T04:04:36;6.27;;;3.30;;
803;SDS011;25687;49.976;8.240;2023-04-15T04:07:02;4.37;;;2.73;;
803;SDS011;25687;49.976;8.240;2023-04-15T04:09:27;7.97;;;3.30;;
803;SDS011;25687;49.976;8.240;2023-04-15T04:11:52;7.23;;;3.77;;
803;SDS011;25687;49.976;8.240;2023-04-15T04:14:18;6.67;;;3.37;;
803;SDS011;25687;49.976;8.240;2023-04-15T04:16:43;3.37;;;2.83;;
803;SDS011;25687;49.976;8.240;2023-04-15T04:19:09;5.23;;;3.40;;
803;SDS011;25687;49.976;8.240;2023-04-15T04:21:34;5.40;;;3.13;;
803;SDS011;25687;49.976;8.240;2023-04-15T04:24:00;4.77;;;2.77;;
803;SDS011;25687;49.976;8.240;2023-04-15T04:26:26;4.90;;;3.03;;
803;SDS011;25687;49.976;8.240;2023-04-15T04:28:51;6.50;;;3.57;;
803;SDS011;25687;49.976;8.240;2023-04-15T04:31:16;5.47;;;3.03;;
803;SDS011;25687;49.976;8.240;2023-04-15T04:33:42;4.73;;;3.13;;
803;SDS011;25687;49.976;8.240;2023-04-15T04:36:07;5.97;;;2.90;;
803;SDS011;25687;49.976;8.240;2023-04-15T04:38:32;3.97;;;3.00;;
803;SDS011;25687;49.976;8.240;2023-04-15T04:40:58;4.43;;;3.20;;
803;SDS011;25687;49.976;8.240;2023-04-15T04:43:24;5.57;;;3.77;;
803;SDS011;25687;49.976;8.240;2023-04-15T04:45:50;7.07;;;3.20;;
803;SDS011;25687;49.976;8.240;2023-04-15T04:48:15;3.67;;;3.30;;
803;SDS011;25687;49.976;8.240;2023-04-15T04:50:41;6.57;;;3.27;;
803;SDS011;25687;49.976;8.240;2023-04-15T04:53:06;5.80;;;3.30;;
803;SDS011;25687;49.976;8.240;2023-04-15T04:55:31;4.50;;;3.17;;
803;SDS011;25687;49.976;8.240;2023-04-15T04:57:57;5.73;;;3.27;;
803;SDS011;25687;49.976;8.240;2023-04-15T05:00:22;6.23;;;3.57;;
803;SDS011;25687;49.976;8.240;2023-04-15T05:02:48;5.77;;;2.90;;
803;SDS011;25687;49.976;8.240;2023-04-15T05:05:15;3.80;;;2.90;;
803;SDS011;25687;49.976;8.240;2023-04-15T05:07:40;6.30;;;3.50;;
803;SDS011;25687;49.976;8.240;2023-04-15T05:10:06;6.83;;;3.80;;
803;SDS011;25687;49.976;8.240;2023-04-15T05:12:32;5.07;;;3.50;;
803;SDS011;25687;49.976;8.240;2023-04-15T05:14:58;5.73;;;3.17;;
803;SDS011;25687;49.976;8.240;2023-04-15T05:17:25;4.73;;;3.03;;
803;SDS011;25687;49.976;8.240;2023-04-15T05:19:50;4.63;;;3.20;;
803;SDS011;25687;49.976;8.240;2023-04-15T05:22:15;5.47;;;3.50;;
803;SDS011;25687;49.976;8.240;2023-04-15T05:24:41;5.80;;;3.60;;
803;SDS011;25687;49.976;8.240;2023-04-15T05:27:06;9.27;;;3.63;;
803;SDS011;25687;49.976;8.240;2023-04-15T05:29:32;5.67;;;3.57;;
803;SDS011;25687;49.976;8.240;2023-04-15T05:31:57;5.80;;;3.60;;
803;SDS011;25687;49.976;8.240;2023-04-15T05:34:23;3.70;;;3.17;;
803;SDS011;25687;49.976;8.240;2023-04-15T05:36:48;5.93;;;4.03;;
803;SDS011;25687;49.976;8.240;2023-04-15T05:39:13;5.60;;;3.63;;
803;SDS011;25687;49.976;8.240;2023-04-15T05:41:39;5.27;;;3.80;;
803;SDS011;25687;49.976;8.240;2023-04-15T05:44:04;4.50;;;3.37;;
803;SDS011;25687;49.976;8.240;2023-04-15T05:46:30;5.13;;;3.50;;
803;SDS011;25687;49.976;8.240;2023-04-15T05:48:55;6.57;;;3.57;;
803;SDS011;25687;49.976;8.240;2023-04-15T05:51:20;4.50;;;3.37;;
803;SDS011;25687;49.976;8.240;2023-04-15T05:53:46;6.47;;;4.00;;
803;SDS011;25687;49.976;8.240;2023-04-15T05:56:11;6.83;;;3.60;;
803;SDS011;25687;49.976;8.240;2023-04-15T05:58:37;4.93;;;3.97;;
803;SDS011;25687;49.976;8.240;2023-04-15T06:01:02;7.23;;;3.90;;
803;SDS011;25687;49.976;8.240;2023-04-15T06:03:28;5.57;;;4.20;;
803;SDS011;25687;49.976;8.240;2023-04-15T06:05:53;5.93;;;3.83;;
803;SDS011;25687;49.976;8.240;2023-04-15T06:08:18;6.07;;;3.47;;
803;SDS011;25687;49.976;8.240;2023-04-15T06:10:43;7.77;;;4.30;;
803;SDS011;25687;49.976;8.240;2023-04-15T06:13:09;5.80;;;3.80;;
803;SDS011;25687;49.976;8.240;2023-04-15T06:15:35;5.40;;;4.10;;
803;SDS011;25687;49.976;8.240;2023-04-15T06:18:00;10.07;;;4.70;;
803;SDS011;25687;49.976;8.240;2023-04-15T06:20:26;7.67;;;3.53;;
803;SDS011;25687;49.976;8.240;2023-04-15T06:22:51;9.57;;;4.23;;
803;SDS011;25687;49.976;8.240;2023-04-15T06:25:17;5.60;;;4.13;;
803;SDS011;25687;49.976;8.240;2023-04-15T06:27:42;7.83;;;4.63;;
803;SDS011;25687;49.976;8.240;2023-04-15T06:30:07;6.90;;;4.10;;
803;SDS011;25687;49.976;8.240;2023-04-15T06:32:33;5.20;;;3.70;;
803;SDS011;25687;49.976;8.240;2023-04-15T06:34:58;6.60;;;3.93;;
803;SDS011;25687;49.976;8.240;2023-04-15T06:37:24;5.40;;;3.80;;
803;SDS011;25687;49.976;8.240;2023-04-15T06:39:49;4.97;;;3.90;;
803;SDS011;25687;49.976;8.240;2023-04-15T06:42:15;6.20;;;3.37;;
803;SDS011;25687;49.976;8.240;2023-04-15T06:44:41;4.47;;;2.93;;
803;SDS011;25687;49.976;8.240;2023-04-15T06:47:06;5.67;;;3.50;;
803;SDS011;25687;49.976;8.240;2023-04-15T06:49:33;4.87;;;3.30;;
803;SDS011;25687;49.976;8.240;2023-04-15T06:51:58;6.07;;;3.17;;
803;SDS011;25687;49.976;8.240;2023-04-15T06:54:24;8.10;;;2.93;;
803;SDS011;25687;49.976;8.240;2023-04-15T06:56:50;5.33;;;3.40;;
803;SDS011;25687;49.976;8.240;2023-04-15T06:59:16;7.23;;;3.20;;
803;SDS011;25687;49.976;8.240;2023-04-15T07:01:41;5.13;;;3.47;;
803;SDS011;25687;49.976;8.240;2023-04-15T07:04:07;6.70;;;4.33;;
803;SDS011;25687;49.976;8.240;2023-04-15T07:06:32;6.70;;;4.07;;
803;SDS011;25687;49.976;8.240;2023-04-15T07:08:57;6.53;;;3.97;;
803;SDS011;25687;49.976;8.240;2023-04-15T07:11:24;7.17;;;3.67;;
803;SDS011;25687;49.976;8.240;2023-04-15T07:13:50;5.63;;;3.57;;
803;SDS011;25687;49.976;8.240;2023-04-15T07:16:15;6.73;;;3.57;;
803;SDS011;25687;49.976;8.240;2023-04-15T07:18:41;5.53;;;2.70;;
803;SDS011;25687;49.976;8.240;2023-04-15T07:21:07;4.93;;;2.67;;
803;SDS011;25687;49.976;8.240;2023-04-15T07:23:32;5.43;;;2.83;;
803;SDS011;25687;49.976;8.240;2023-04-15T07:25:58;4.37;;;2.90;;
803;SDS011;25687;49.976;8.240;2023-04-15T07:28:23;4.43;;;2.90;;
803;SDS011;25687;49.976;8.240;2023-04-15T07:30:48;7.13;;;2.90;;
803;SDS011;25687;49.976;8.240;2023-04-15T07:33:13;4.30;;;2.33;;
803;SDS011;25687;49.976;8.240;2023-04-15T07:35:39;3.67;;;2.50;;
803;SDS011;25687;49.976;8.240;2023-04-15T07:38:04;2.95;;;2.33;;
803;SDS011;25687;49.976;8.240;2023-04-15T07:40:30;4.15;;;2.95;;
803;SDS011;25687;49.976;8.240;2023-04-15T07:42:56;3.10;;;2.40;;
803;SDS011;25687;49.976;8.240;2023-04-15T07:45:22;5.53;;;2.60;;
803;SDS011;25687;49.976;8.240;2023-04-15T07:47:47;6.03;;;2.80;;
803;SDS011;25687;49.976;8.240;2023-04-15T07:50:14;8.73;;;3.00;;
803;SDS011;25687;49.976;8.240;2023-04-15T07:52:41;4.57;;;2.60;;
803;SDS011;25687;49.976;8.240;2023-04-15T07:55:07;4.87;;;2.70;;
803;SDS011;25687;49.976;8.240;2023-04-15T07:57:36;2.60;;;1.97;;
803;SDS011;25687;49.976;8.240;2023-04-15T08:00:01;5.70;;;2.57;;
803;SDS011;25687;49.976;8.240;2023-04-15T08:02:31;3.60;;;2.40;;
803;SDS011;25687;49.976;8.240;2023-04-15T08:04:56;4.80;;;3.40;;
803;SDS011;25687;49.976;8.240;2023-04-15T08:07:22;7.40;;;3.57;;
803;SDS011;25687;49.976;8.240;2023-04-15T08:09:48;2.47;;;2.23;;
803;SDS011;25687;49.976;8.240;2023-04-15T08:12:13;10.80;;;3.33;;
803;SDS011;25687;49.976;8.240;2023-04-15T08:14:39;4.63;;;2.60;;
803;SDS011;25687;49.976;8.240;2023-04-15T08:17:04;5.17;;;2.50;;
803;SDS011;25687;49.976;8.240;2023-04-15T08:19:30;5.20;;;2.70;;
803;SDS011;25687;49.976;8.240;2023-04-15T08:21:55;6.03;;;2.97;;
803;SDS011;25687;49.976;8.240;2023-04-15T08:24:21;5.20;;;2.33;;
803;SDS011;25687;49.976;8.240;2023-04-15T08:26:47;5.07;;;2.87;;
803;SDS011;25687;49.976;8.240;2023-04-15T08:29:12;3.03;;;2.30;;
803;SDS011;25687;49.976;8.240;2023-04-15T08:31:37;4.73;;;2.73;;
803;SDS011;25687;49.976;8.240;2023-04-15T08:34:03;4.57;;;2.50;;
803;SDS011;25687;49.976;8.240;2023-04-15T08:36:28;6.27;;;2.87;;
803;SDS011;25687;49.976;8.240;2023-04-15T08:38:54;7.17;;;2.90;;
803;SDS011;25687;49.976;8.240;2023-04-15T08:41:23;5.40;;;2.80;;
803;SDS011;25687;49.976;8.240;2023-04-15T08:43:56;6.57;;;3.10;;
803;SDS011;25687;49.976;8.240;2023-04-15T08:46:22;3.47;;;2.63;;
803;SDS011;25687;49.976;8.240;2023-04-15T08:48:48;4.93;;;3.33;;
803;SDS011;25687;49.976;8.240;2023-04-15T08:51:14;4.70;;;2.70;;
803;SDS011;25687;49.976;8.240;2023-04-15T08:53:44;7.97;;;3.43;;
803;SDS011;25687;49.976;8.240;2023-04-15T08:56:11;4.75;;;2.95;;
803;SDS011;25687;49.976;8.240;2023-04-15T08:58:39;5.20;;;3.60;;
803;SDS011;25687;49.976;8.240;2023-04-15T09:01:05;4.53;;;3.20;;
803;SDS011;25687;49.976;8.240;2023-04-15T09:03:31;7.47;;;3.05;;
803;SDS011;25687;49.976;8.240;2023-04-15T09:05:56;4.70;;;3.55;;
803;SDS011;25687;49.976;8.240;2023-04-15T09:08:22;7.90;;;3.75;;
803;SDS011;25687;49.976;8.240;2023-04-15T09:10:47;4.38;;;3.00;;
803;SDS011;25687;49.976;8.240;2023-04-15T09:13:12;7.25;;;3.22;;
803;SDS011;25687;49.976;8.240;2023-04-15T09:15:38;5.22;;;3.35;;
803;SDS011;25687;49.976;8.240;2023-04-15T09:18:04;6.28;;;3.47;;
803;SDS011;25687;49.976;8.240;2023-04-15T09:20:32;4.45;;;3.20;;
803;SDS011;25687;49.976;8.240;2023-04-15T09:23:10;5.32;;;3.03;;
803;SDS011;25687;49.976;8.240;2023-04-15T09:25:37;3.90;;;3.08;;
803;SDS011;25687;49.976;8.240;2023-04-15T09:28:06;4.55;;;3.17;;
803;SDS011;25687;49.976;8.240;2023-04-15T09:30:31;4.35;;;2.72;;
803;SDS011;25687;49.976;8.240;2023-04-15T09:32:58;3.70;;;1.88;;
803;SDS011;25687;49.976;8.240;2023-04-15T09:35:25;3.78;;;1.92;;
803;SDS011;25687;49.976;8.240;2023-04-15T09:37:52;5.30;;;1.70;;
803;SDS011;25687;49.976;8.240;2023-04-15T09:40:36;5.07;;;1.67;;
803;SDS011;25687;49.976;8.240;2023-04-15T09:43:03;4.72;;;1.92;;
803;SDS011;25687;49.976;8.240;2023-04-15T09:45:29;5.73;;;2.10;;
803;SDS011;25687;49.976;8.240;2023-04-15T09:47:56;3.30;;;1.50;;
803;SDS011;25687;49.976;8.240;2023-04-15T09:50:22;2.77;;;1.37;;
803;SDS011;25687;49.976;8.240;2023-04-15T09:52:52;1.57;;;1.20;;
803;SDS011;25687;49.976;8.240;2023-04-15T09:55:17;2.33;;;1.43;;
803;SDS011;25687;49.976;8.240;2023-04-15T09:57:43;2.67;;;1.50;;
803;SDS011;25687;49.976;8.240;2023-04-15T10:00:11;4.43;;;1.83;;
803;SDS011;25687;49.976;8.240;2023-04-15T10:02:41;5.83;;;2.00;;
803;SDS011;25687;49.976;8.240;2023-04-15T10:05:06;2.67;;;1.43;;
803;SDS011;25687;49.976;8.240;2023-04-15T10:07:38;2.97;;;1.67;;
803;SDS011;25687;49.976;8.240;2023-04-15T10:10:05;2.73;;;1.70;;
803;SDS011;25687;49.976;8.240;2023-04-15T10:12:31;4.67;;;1.50;;
803;SDS011;25687;49.976;8.240;2023-04-15T10:14:58;2.13;;;1.30;;
803;SDS011;25687;49.976;8.240;2023-04-15T10:17:28;2.37;;;1.10;;
803;SDS011;25687;49.976;8.240;2023-04-15T10:20:03;2.27;;;1.20;;
803;SDS011;25687;49.976;8.240;2023-04-15T10:22:30;3.33;;;1.35;;
803;SDS011;25687;49.976;8.240;2023-04-15T10:24:56;3.65;;;1.50;;
803;SDS011;25687;49.976;8.240;2023-04-15T10:27:22;2.67;;;1.00;;
803;SDS011;25687;49.976;8.240;2023-04-15T10:29:49;1.77;;;1.00;;
803;SDS011;25687;49.976;8.240;2023-04-15T10:32:16;4.10;;;1.37;;
803;SDS011;25687;49.976;8.240;2023-04-15T10:34:44;2.27;;;1.50;;
803;SDS011;25687;49.976;8.240;2023-04-15T10:37:11;2.30;;;1.52;;
803;SDS011;25687;49.976;8.240;2023-04-15T10:42:05;1.53;;;1.20;;
803;SDS011;25687;49.976;8.240;2023-04-15T10:44:31;2.47;;;1.43;;
803;SDS011;25687;49.976;8.240;2023-04-15T10:46:56;2.97;;;1.47;;
803;SDS011;25687;49.976;8.240;2023-04-15T10:49:25;2.07;;;1.37;;
803;SDS011;25687;49.976;8.240;2023-04-15T10:51:51;2.70;;;1.33;;
803;SDS011;25687;49.976;8.240;2023-04-15T10:59:23;2.43;;;1.20;;
803;SDS011;25687;49.976;8.240;2023-04-15T11:02:23;1.93;;;1.30;;
803;SDS011;25687;49.976;8.240;2023-04-15T11:04:56;2.60;;;1.23;;
803;SDS011;25687;49.976;8.240;2023-04-15T11:07:32;2.50;;;1.30;;
803;SDS011;25687;49.976;8.240;2023-04-15T11:10:00;3.30;;;1.20;;
803;SDS011;25687;49.976;8.240;2023-04-15T11:12:33;3.07;;;1.30;;
803;SDS011;25687;49.976;8.240;2023-04-15T11:15:23;3.43;;;1.43;;
803;SDS011;25687;49.976;8.240;2023-04-15T11:18:09;2.35;;;1.58;;
803;SDS011;25687;49.976;8.240;2023-04-15T11:20:49;2.07;;;1.40;;
803;SDS011;25687;49.976;8.240;2023-04-15T11:23:17;2.47;;;1.30;;
803;SDS011;25687;49.976;8.240;2023-04-15T11:25:43;2.15;;;1.30;;
803;SDS011;25687;49.976;8.240;2023-04-15T11:28:10;4.43;;;1.50;;
803;SDS011;25687;49.976;8.240;2023-04-15T11:30:37;1.90;;;1.30;;
803;SDS011;25687;49.976;8.240;2023-04-15T11:33:04;2.60;;;1.30;;
803;SDS011;25687;49.976;8.240;2023-04-15T11:35:30;2.90;;;1.20;;
803;SDS011;25687;49.976;8.240;2023-04-15T11:37:55;2.10;;;0.80;;
803;SDS011;25687;49.976;8.240;2023-04-15T11:40:25;1.60;;;0.90;;
803;SDS011;25687;49.976;8.240;2023-04-15T11:43:11;0.83;;;0.70;;
803;SDS011;25687;49.976;8.240;2023-04-15T11:45:48;1.43;;;1.00;;
803;SDS011;25687;49.976;8.240;2023-04-15T11:48:21;1.60;;;0.80;;
803;SDS011;25687;49.976;8.240;2023-04-15T11:50:54;2.23;;;1.10;;
803;SDS011;25687;49.976;8.240;2023-04-15T11:53:23;1.47;;;0.80;;
803;SDS011;25687;49.976;8.240;2023-04-15T11:56:00;1.20;;;1.10;;
803;SDS011;25687;49.976;8.240;2023-04-15T11:58:25;0.90;;;0.80;;
803;SDS011;25687;49.976;8.240;2023-04-15T12:00:52;0.57;;;0.57;;
803;SDS011;25687;49.976;8.240;2023-04-15T12:08:59;0.80;;;0.80;;
803;SDS011;25687;49.976;8.240;2023-04-15T12:14:25;1.40;;;1.10;;
803;SDS011;25687;49.976;8.240;2023-04-15T12:16:56;0.73;;;0.73;;
803;SDS011;25687;49.976;8.240;2023-04-15T12:19:27;0.80;;;0.80;;
803;SDS011;25687;49.976;8.240;2023-04-15T12:21:54;1.27;;;1.00;;
803;SDS011;25687;49.976;8.240;2023-04-15T12:24:23;0.70;;;0.70;;
803;SDS011;25687;49.976;8.240;2023-04-15T12:26:52;1.20;;;0.90;;
803;SDS011;25687;49.976;8.240;2023-04-15T12:29:23;1.13;;;1.00;;
803;SDS011;25687;49.976;8.240;2023-04-15T12:31:53;1.07;;;0.73;;
803;SDS011;25687;49.976;8.240;2023-04-15T12:36:53;1.27;;;0.80;;
803;SDS011;25687;49.976;8.240;2023-04-15T12:39:22;2.30;;;1.00;;
803;SDS011;25687;49.976;8.240;2023-04-15T12:41:49;1.10;;;1.00;;
803;SDS011;25687;49.976;8.240;2023-04-15T12:44:14;1.13;;;0.80;;
803;SDS011;25687;49.976;8.240;2023-04-15T12:46:39;1.33;;;1.20;;
803;SDS011;25687;49.976;8.240;2023-04-15T12:49:05;0.80;;;0.80;;
803;SDS011;25687;49.976;8.240;2023-04-15T12:51:30;0.77;;;0.77;;
803;SDS011;25687;49.976;8.240;2023-04-15T12:53:56;0.80;;;0.80;;
803;SDS011;25687;49.976;8.240;2023-04-15T12:56:22;0.90;;;0.90;;
803;SDS011;25687;49.976;8.240;2023-04-15T12:58:47;1.30;;;1.00;;
803;SDS011;25687;49.976;8.240;2023-04-15T13:01:13;1.13;;;1.07;;
803;SDS011;25687;49.976;8.240;2023-04-15T13:03:38;2.30;;;1.00;;
803;SDS011;25687;49.976;8.240;2023-04-15T13:06:03;2.43;;;1.00;;
803;SDS011;25687;49.976;8.240;2023-04-15T13:08:29;0.90;;;0.90;;
803;SDS011;25687;49.976;8.240;2023-04-15T13:10:55;3.23;;;1.20;;
803;SDS011;25687;49.976;8.240;2023-04-15T13:13:20;1.53;;;0.93;;
803;SDS011;25687;49.976;8.240;2023-04-15T13:15:46;1.00;;;0.87;;
803;SDS011;25687;49.976;8.240;2023-04-15T13:18:11;1.10;;;1.00;;
803;SDS011;25687;49.976;8.240;2023-04-15T13:20:37;1.73;;;1.30;;
803;SDS011;25687;49.976;8.240;2023-04-15T13:23:02;1.13;;;1.03;;
803;SDS011;25687;49.976;8.240;2023-04-15T13:25:27;1.13;;;0.90;;
803;SDS011;25687;49.976;8.240;2023-04-15T13:27:52;1.13;;;1.07;;
803;SDS011;25687;49.976;8.240;2023-04-15T13:30:18;1.13;;;1.10;;
803;SDS011;25687;49.976;8.240;2023-04-15T13:32:43;1.07;;;1.00;;
803;SDS011;25687;49.976;8.240;2023-04-15T13:35:08;1.73;;;1.00;;
803;SDS011;25687;49.976;8.240;2023-04-15T13:37:34;3.50;;;1.30;;
803;SDS011;25687;49.976;8.240;2023-04-15T13:39:59;2.47;;;1.00;;
803;SDS011;25687;49.976;8.240;2023-04-15T13:42:25;1.30;;;1.20;;
803;SDS011;25687;49.976;8.240;2023-04-15T13:44:51;2.90;;;1.50;;
803;SDS011;25687;49.976;8.240;2023-04-15T13:47:17;1.47;;;1.37;;
803;SDS011;25687;49.976;8.240;2023-04-15T13:49:43;1.33;;;1.23;;
803;SDS011;25687;49.976;8.240;2023-04-15T13:52:09;1.47;;;1.10;;
803;SDS011;25687;49.976;8.240;2023-04-15T13:54:35;2.83;;;1.40;;
803;SDS011;25687;49.976;8.240;2023-04-15T13:57:00;1.47;;;1.37;;
803;SDS011;25687;49.976;8.240;2023-04-15T13:59:25;1.83;;;1.40;;
803;SDS011;25687;49.976;8.240;2023-04-15T14:01:51;1.87;;;1.27;;
803;SDS011;25687;49.976;8.240;2023-04-15T14:04:16;1.93;;;1.30;;
803;SDS011;25687;49.976;8.240;2023-04-15T14:06:42;1.23;;;1.13;;
803;SDS011;25687;49.976;8.240;2023-04-15T14:09:07;1.63;;;1.53;;
803;SDS011;25687;49.976;8.240;2023-04-15T14:11:33;1.60;;;1.30;;
803;SDS011;25687;49.976;8.240;2023-04-15T14:14:00;1.50;;;1.30;;
803;SDS011;25687;49.976;8.240;2023-04-15T14:16:26;1.10;;;1.10;;
803;SDS011;25687;49.976;8.240;2023-04-15T14:18:51;2.13;;;1.60;;
803;SDS011;25687;49.976;8.240;2023-04-15T14:21:17;1.43;;;1.30;;
803;SDS011;25687;49.976;8.240;2023-04-15T14:23:42;1.60;;;1.50;;
803;SDS011;25687;49.976;8.240;2023-04-15T14:26:08;1.60;;;1.50;;
803;SDS011;25687;49.976;8.240;2023-04-15T14:28:33;1.50;;;1.40;;
803;SDS011;25687;49.976;8.240;2023-04-15T14:30:58;1.93;;;1.70;;
803;SDS011;25687;49.976;8.240;2023-04-15T14:33:24;1.80;;;1.60;;
803;SDS011;25687;49.976;8.240;2023-04-15T14:35:50;2.83;;;1.70;;
803;SDS011;25687;49.976;8.240;2023-04-15T14:38:15;1.50;;;1.40;;
803;SDS011;25687;49.976;8.240;2023-04-15T14:40:41;2.97;;;1.60;;
803;SDS011;25687;49.976;8.240;2023-04-15T14:43:06;1.67;;;1.57;;
803;SDS011;25687;49.976;8.240;2023-04-15T14:45:31;1.70;;;1.60;;
803;SDS011;25687;49.976;8.240;2023-04-15T14:47:57;2.57;;;1.73;;
803;SDS011;25687;49.976;8.240;2023-04-15T14:50:23;2.60;;;1.80;;
803;SDS011;25687;49.976;8.240;2023-04-15T14:52:48;1.73;;;1.63;;
803;SDS011;25687;49.976;8.240;2023-04-15T14:55:13;2.00;;;1.77;;
803;SDS011;25687;49.976;8.240;2023-04-15T14:57:39;4.80;;;2.10;;
803;SDS011;25687;49.976;8.240;2023-04-15T15:00:06;2.40;;;1.90;;
803;SDS011;25687;49.976;8.240;2023-04-15T15:02:32;2.30;;;1.73;;
803;SDS011;25687;49.976;8.240;2023-04-15T15:04:59;2.17;;;1.60;;
803;SDS011;25687;49.976;8.240;2023-04-15T15:07:25;2.23;;;2.03;;
803;SDS011;25687;49.976;8.240;2023-04-15T15:09:51;2.23;;;2.10;;
803;SDS011;25687;49.976;8.240;2023-04-15T15:12:16;2.17;;;2.07;;
803;SDS011;25687;49.976;8.240;2023-04-15T15:14:41;2.40;;;2.00;;
803;SDS011;25687;49.976;8.240;2023-04-15T15:17:07;2.37;;;2.17;;
803;SDS011;25687;49.976;8.240;2023-04-15T15:19:33;3.07;;;2.00;;
803;SDS011;25687;49.976;8.240;2023-04-15T15:21:59;2.00;;;1.90;;
803;SDS011;25687;49.976;8.240;2023-04-15T15:24:24;2.17;;;1.90;;
803;SDS011;25687;49.976;8.240;2023-04-15T15:26:49;1.97;;;1.87;;
803;SDS011;25687;49.976;8.240;2023-04-15T15:29:15;3.07;;;2.07;;